sensor_id;sensor_type;location;lat;lon;timestamp;P1;durP1;ratioP1;P2;durP2;ratioP2
17596;SDS011;8917;50.942;6.946;2024-03-06T00:01:01;23.40;;;17.40;;
17596;SDS011;8917;50.942;6.946;2024-03-06T00:03:28;22.20;;;17.47;;
17596;SDS011;8917;50.942;6.946;2024-03-06T00:05:55;21.40;;;16.87;;
17596;SDS011;8917;50.942;6.946;2024-03-06T00:08:23;22.47;;;16.77;;
17596;SDS011;8917;50.942;6.946;2024-03-06T00:10:50;23.07;;;18.13;;
17596;SDS011;8917;50.942;6.946;2024-03-06T00:13:17;23.17;;;17.27;;
17596;SDS011;8917;50.942;6.946;2024-03-06T00:15:45;22.30;;;16.60;;
17596;SDS011;8917;50.942;6.946;2024-03-06T00:18:14;24.07;;;17.70;;
17596;SDS011;8917;50.942;6.946;2024-03-06T00:20:41;23.27;;;16.53;;
17596;SDS011;8917;50.942;6.946;2024-03-06T00:23:09;21.83;;;16.80;;
17596;SDS011;8917;50.942;6.946;2024-03-06T00:25:36;19.90;;;16.10;;
17596;SDS011;8917;50.942;6.946;2024-03-06T00:28:04;19.57;;;15.67;;
17596;SDS011;8917;50.942;6.946;2024-03-06T00:30:31;21.83;;;15.83;;
17596;SDS011;8917;50.942;6.946;2024-03-06T00:32:58;24.03;;;17.10;;
17596;SDS011;8917;50.942;6.946;2024-03-06T00:35:27;20.07;;;16.07;;
17596;SDS011;8917;50.942;6.946;2024-03-06T00:37:54;20.90;;;15.83;;
17596;SDS011;8917;50.942;6.946;2024-03-06T00:40:22;21.97;;;15.70;;
17596;SDS011;8917;50.942;6.946;2024-03-06T00:42:49;20.57;;;16.53;;
17596;SDS011;8917;50.942;6.946;2024-03-06T00:45:17;22.10;;;17.13;;
17596;SDS011;8917;50.942;6.946;2024-03-06T00:47:44;18.80;;;16.20;;
17596;SDS011;8917;50.942;6.946;2024-03-06T00:50:11;21.10;;;15.97;;
17596;SDS011;8917;50.942;6.946;2024-03-06T00:52:39;22.43;;;17.20;;
17596;SDS011;8917;50.942;6.946;2024-03-06T00:55:07;22.37;;;16.73;;
17596;SDS011;8917;50.942;6.946;2024-03-06T00:57:35;23.80;;;17.20;;
17596;SDS011;8917;50.942;6.946;2024-03-06T01:00:03;21.17;;;16.67;;
17596;SDS011;8917;50.942;6.946;2024-03-06T01:02:35;19.30;;;15.27;;
17596;SDS011;8917;50.942;6.946;2024-03-06T01:05:03;19.40;;;15.10;;
17596;SDS011;8917;50.942;6.946;2024-03-06T01:07:30;22.40;;;16.40;;
17596;SDS011;8917;50.942;6.946;2024-03-06T01:09:59;20.20;;;15.87;;
17596;SDS011;8917;50.942;6.946;2024-03-06T01:12:27;21.20;;;16.50;;
17596;SDS011;8917;50.942;6.946;2024-03-06T01:14:55;19.13;;;15.73;;
17596;SDS011;8917;50.942;6.946;2024-03-06T01:17:22;20.37;;;16.17;;
17596;SDS011;8917;50.942;6.946;2024-03-06T01:19:49;22.37;;;16.70;;
17596;SDS011;8917;50.942;6.946;2024-03-06T01:22:17;19.00;;;15.63;;
17596;SDS011;8917;50.942;6.946;2024-03-06T01:24:44;22.47;;;16.10;;
17596;SDS011;8917;50.942;6.946;2024-03-06T01:27:15;19.60;;;15.20;;
17596;SDS011;8917;50.942;6.946;2024-03-06T01:29:43;20.20;;;15.43;;
17596;SDS011;8917;50.942;6.946;2024-03-06T01:32:10;19.23;;;14.93;;
17596;SDS011;8917;50.942;6.946;2024-03-06T01:34:38;19.00;;;14.67;;
17596;SDS011;8917;50.942;6.946;2024-03-06T01:37:05;20.13;;;14.30;;
17596;SDS011;8917;50.942;6.946;2024-03-06T01:39:32;17.00;;;13.90;;
17596;SDS011;8917;50.942;6.946;2024-03-06T01:42:01;19.00;;;15.40;;
17596;SDS011;8917;50.942;6.946;2024-03-06T01:44:29;18.17;;;14.10;;
17596;SDS011;8917;50.942;6.946;2024-03-06T01:46:57;19.37;;;14.97;;
17596;SDS011;8917;50.942;6.946;2024-03-06T01:49:24;21.67;;;14.27;;
17596;SDS011;8917;50.942;6.946;2024-03-06T01:51:53;18.13;;;14.77;;
17596;SDS011;8917;50.942;6.946;2024-03-06T01:54:21;19.37;;;14.20;;
17596;SDS011;8917;50.942;6.946;2024-03-06T01:56:48;20.20;;;15.40;;
17596;SDS011;8917;50.942;6.946;2024-03-06T01:59:16;21.13;;;15.77;;
17596;SDS011;8917;50.942;6.946;2024-03-06T02:01:46;20.33;;;16.20;;
17596;SDS011;8917;50.942;6.946;2024-03-06T02:04:13;19.60;;;15.60;;
17596;SDS011;8917;50.942;6.946;2024-03-06T02:06:40;18.67;;;14.90;;
17596;SDS011;8917;50.942;6.946;2024-03-06T02:09:07;20.57;;;15.60;;
17596;SDS011;8917;50.942;6.946;2024-03-06T02:11:35;19.70;;;15.83;;
17596;SDS011;8917;50.942;6.946;2024-03-06T02:14:03;21.07;;;16.27;;
17596;SDS011;8917;50.942;6.946;2024-03-06T02:16:31;21.70;;;16.07;;
17596;SDS011;8917;50.942;6.946;2024-03-06T02:19:00;20.17;;;15.53;;
17596;SDS011;8917;50.942;6.946;2024-03-06T02:21:29;22.80;;;17.03;;
17596;SDS011;8917;50.942;6.946;2024-03-06T02:23:57;21.53;;;16.77;;
17596;SDS011;8917;50.942;6.946;2024-03-06T02:26:24;21.20;;;16.40;;
17596;SDS011;8917;50.942;6.946;2024-03-06T02:28:52;23.70;;;16.13;;
17596;SDS011;8917;50.942;6.946;2024-03-06T02:31:19;19.07;;;15.83;;
17596;SDS011;8917;50.942;6.946;2024-03-06T02:33:48;20.23;;;15.10;;
17596;SDS011;8917;50.942;6.946;2024-03-06T02:36:15;22.57;;;16.40;;
17596;SDS011;8917;50.942;6.946;2024-03-06T02:38:44;22.50;;;16.60;;
17596;SDS011;8917;50.942;6.946;2024-03-06T02:41:11;21.47;;;16.30;;
17596;SDS011;8917;50.942;6.946;2024-03-06T02:43:41;21.60;;;16.90;;
17596;SDS011;8917;50.942;6.946;2024-03-06T02:46:08;19.83;;;16.00;;
17596;SDS011;8917;50.942;6.946;2024-03-06T02:48:35;20.17;;;16.10;;
17596;SDS011;8917;50.942;6.946;2024-03-06T02:51:02;18.93;;;14.97;;
17596;SDS011;8917;50.942;6.946;2024-03-06T02:53:30;19.47;;;14.93;;
17596;SDS011;8917;50.942;6.946;2024-03-06T02:55:58;19.97;;;14.30;;
17596;SDS011;8917;50.942;6.946;2024-03-06T02:58:26;19.73;;;14.47;;
17596;SDS011;8917;50.942;6.946;2024-03-06T03:00:56;18.00;;;12.93;;
17596;SDS011;8917;50.942;6.946;2024-03-06T03:03:23;18.03;;;13.47;;
17596;SDS011;8917;50.942;6.946;2024-03-06T03:05:51;15.93;;;12.23;;
17596;SDS011;8917;50.942;6.946;2024-03-06T03:08:18;14.83;;;12.57;;
17596;SDS011;8917;50.942;6.946;2024-03-06T03:10:45;16.30;;;12.40;;
17596;SDS011;8917;50.942;6.946;2024-03-06T03:13:14;16.43;;;12.90;;
17596;SDS011;8917;50.942;6.946;2024-03-06T03:15:41;17.40;;;12.63;;
17596;SDS011;8917;50.942;6.946;2024-03-06T03:18:09;13.87;;;11.63;;
17596;SDS011;8917;50.942;6.946;2024-03-06T03:20:36;14.57;;;11.83;;
17596;SDS011;8917;50.942;6.946;2024-03-06T03:23:03;15.40;;;12.03;;
17596;SDS011;8917;50.942;6.946;2024-03-06T03:25:31;15.40;;;11.87;;
17596;SDS011;8917;50.942;6.946;2024-03-06T03:27:59;16.40;;;13.00;;
17596;SDS011;8917;50.942;6.946;2024-03-06T03:30:27;17.07;;;12.23;;
17596;SDS011;8917;50.942;6.946;2024-03-06T03:32:54;18.07;;;12.83;;
17596;SDS011;8917;50.942;6.946;2024-03-06T03:35:22;16.27;;;12.60;;
17596;SDS011;8917;50.942;6.946;2024-03-06T03:37:50;17.17;;;12.83;;
17596;SDS011;8917;50.942;6.946;2024-03-06T03:40:17;15.97;;;12.37;;
17596;SDS011;8917;50.942;6.946;2024-03-06T03:42:44;14.63;;;11.43;;
17596;SDS011;8917;50.942;6.946;2024-03-06T03:45:12;16.97;;;12.73;;
17596;SDS011;8917;50.942;6.946;2024-03-06T03:47:41;19.40;;;12.37;;
17596;SDS011;8917;50.942;6.946;2024-03-06T03:50:09;16.30;;;11.90;;
17596;SDS011;8917;50.942;6.946;2024-03-06T03:52:36;15.70;;;12.37;;
17596;SDS011;8917;50.942;6.946;2024-03-06T03:55:06;16.57;;;12.73;;
17596;SDS011;8917;50.942;6.946;2024-03-06T03:57:34;14.37;;;12.00;;
17596;SDS011;8917;50.942;6.946;2024-03-06T04:00:01;16.97;;;11.43;;
17596;SDS011;8917;50.942;6.946;2024-03-06T04:02:31;14.17;;;10.97;;
17596;SDS011;8917;50.942;6.946;2024-03-06T04:05:00;14.00;;;11.10;;
17596;SDS011;8917;50.942;6.946;2024-03-06T04:07:27;12.40;;;9.80;;
17596;SDS011;8917;50.942;6.946;2024-03-06T04:09:55;12.37;;;9.37;;
17596;SDS011;8917;50.942;6.946;2024-03-06T04:12:23;11.83;;;8.23;;
17596;SDS011;8917;50.942;6.946;2024-03-06T04:14:50;8.77;;;7.87;;
17596;SDS011;8917;50.942;6.946;2024-03-06T04:17:18;8.93;;;6.50;;
17596;SDS011;8917;50.942;6.946;2024-03-06T04:19:45;7.17;;;5.60;;
17596;SDS011;8917;50.942;6.946;2024-03-06T04:22:14;7.53;;;5.33;;
17596;SDS011;8917;50.942;6.946;2024-03-06T04:24:42;6.50;;;5.67;;
17596;SDS011;8917;50.942;6.946;2024-03-06T04:27:09;7.27;;;5.03;;
17596;SDS011;8917;50.942;6.946;2024-03-06T04:29:36;6.63;;;5.00;;
17596;SDS011;8917;50.942;6.946;2024-03-06T04:32:04;6.97;;;5.13;;
17596;SDS011;8917;50.942;6.946;2024-03-06T04:34:31;6.10;;;4.70;;
17596;SDS011;8917;50.942;6.946;2024-03-06T04:36:58;6.00;;;4.47;;
17596;SDS011;8917;50.942;6.946;2024-03-06T04:39:27;6.57;;;4.07;;
17596;SDS011;8917;50.942;6.946;2024-03-06T04:41:54;4.47;;;3.93;;
17596;SDS011;8917;50.942;6.946;2024-03-06T04:44:21;4.63;;;3.47;;
17596;SDS011;8917;50.942;6.946;2024-03-06T04:46:49;5.00;;;3.50;;
17596;SDS011;8917;50.942;6.946;2024-03-06T04:49:16;4.70;;;3.70;;
17596;SDS011;8917;50.942;6.946;2024-03-06T04:51:44;4.87;;;3.37;;
17596;SDS011;8917;50.942;6.946;2024-03-06T04:54:11;4.10;;;3.23;;
17596;SDS011;8917;50.942;6.946;2024-03-06T04:56:39;4.70;;;3.20;;
17596;SDS011;8917;50.942;6.946;2024-03-06T04:59:06;3.87;;;3.10;;
17596;SDS011;8917;50.942;6.946;2024-03-06T05:01:33;3.57;;;3.00;;
17596;SDS011;8917;50.942;6.946;2024-03-06T05:04:02;4.90;;;3.13;;
17596;SDS011;8917;50.942;6.946;2024-03-06T05:06:29;3.30;;;2.90;;
17596;SDS011;8917;50.942;6.946;2024-03-06T05:08:56;3.40;;;2.80;;
17596;SDS011;8917;50.942;6.946;2024-03-06T05:11:23;3.77;;;2.90;;
17596;SDS011;8917;50.942;6.946;2024-03-06T05:13:52;4.70;;;2.90;;
17596;SDS011;8917;50.942;6.946;2024-03-06T05:16:20;4.60;;;3.40;;
17596;SDS011;8917;50.942;6.946;2024-03-06T05:18:48;4.97;;;3.00;;
17596;SDS011;8917;50.942;6.946;2024-03-06T05:21:15;4.57;;;3.00;;
17596;SDS011;8917;50.942;6.946;2024-03-06T05:23:43;4.90;;;3.70;;
17596;SDS011;8917;50.942;6.946;2024-03-06T05:26:10;4.20;;;3.30;;
17596;SDS011;8917;50.942;6.946;2024-03-06T05:28:37;4.20;;;3.30;;
17596;SDS011;8917;50.942;6.946;2024-03-06T05:31:15;3.50;;;3.20;;
17596;SDS011;8917;50.942;6.946;2024-03-06T05:33:43;4.43;;;3.23;;
17596;SDS011;8917;50.942;6.946;2024-03-06T05:36:11;4.43;;;3.00;;
17596;SDS011;8917;50.942;6.946;2024-03-06T05:38:39;5.50;;;3.10;;
17596;SDS011;8917;50.942;6.946;2024-03-06T05:41:07;4.67;;;3.20;;
17596;SDS011;8917;50.942;6.946;2024-03-06T05:43:35;3.83;;;3.43;;
17596;SDS011;8917;50.942;6.946;2024-03-06T05:46:02;3.90;;;3.50;;
17596;SDS011;8917;50.942;6.946;2024-03-06T05:48:31;4.73;;;3.67;;
17596;SDS011;8917;50.942;6.946;2024-03-06T05:50:58;4.00;;;3.30;;
17596;SDS011;8917;50.942;6.946;2024-03-06T05:53:25;6.53;;;3.57;;
17596;SDS011;8917;50.942;6.946;2024-03-06T05:55:52;5.07;;;3.50;;
17596;SDS011;8917;50.942;6.946;2024-03-06T05:58:20;4.10;;;3.40;;
17596;SDS011;8917;50.942;6.946;2024-03-06T06:00:47;4.43;;;3.30;;
17596;SDS011;8917;50.942;6.946;2024-03-06T06:03:14;6.87;;;3.50;;
17596;SDS011;8917;50.942;6.946;2024-03-06T06:05:43;7.87;;;3.63;;
17596;SDS011;8917;50.942;6.946;2024-03-06T06:08:11;4.13;;;3.33;;
17596;SDS011;8917;50.942;6.946;2024-03-06T06:10:38;4.17;;;2.53;;
17596;SDS011;8917;50.942;6.946;2024-03-06T06:13:05;7.10;;;3.90;;
17596;SDS011;8917;50.942;6.946;2024-03-06T06:15:33;4.43;;;3.10;;
17596;SDS011;8917;50.942;6.946;2024-03-06T06:18:00;3.63;;;2.90;;
17596;SDS011;8917;50.942;6.946;2024-03-06T06:20:27;3.30;;;3.00;;
17596;SDS011;8917;50.942;6.946;2024-03-06T06:22:56;3.53;;;2.87;;
17596;SDS011;8917;50.942;6.946;2024-03-06T06:25:23;4.33;;;3.17;;
17596;SDS011;8917;50.942;6.946;2024-03-06T06:27:51;7.40;;;3.80;;
17596;SDS011;8917;50.942;6.946;2024-03-06T06:30:19;4.83;;;3.37;;
17596;SDS011;8917;50.942;6.946;2024-03-06T06:32:46;3.57;;;3.10;;
17596;SDS011;8917;50.942;6.946;2024-03-06T06:35:13;3.50;;;3.20;;
17596;SDS011;8917;50.942;6.946;2024-03-06T06:37:40;5.27;;;3.93;;
17596;SDS011;8917;50.942;6.946;2024-03-06T06:40:09;4.33;;;3.30;;
17596;SDS011;8917;50.942;6.946;2024-03-06T06:42:43;4.67;;;3.37;;
17596;SDS011;8917;50.942;6.946;2024-03-06T06:45:12;3.83;;;3.37;;
17596;SDS011;8917;50.942;6.946;2024-03-06T06:47:39;4.53;;;3.17;;
17596;SDS011;8917;50.942;6.946;2024-03-06T06:50:07;5.67;;;3.47;;
17596;SDS011;8917;50.942;6.946;2024-03-06T06:52:34;6.60;;;4.00;;
17596;SDS011;8917;50.942;6.946;2024-03-06T06:55:01;3.77;;;3.00;;
17596;SDS011;8917;50.942;6.946;2024-03-06T06:57:30;4.93;;;4.03;;
17596;SDS011;8917;50.942;6.946;2024-03-06T06:59:58;3.67;;;3.20;;
17596;SDS011;8917;50.942;6.946;2024-03-06T07:02:25;4.80;;;3.83;;
17596;SDS011;8917;50.942;6.946;2024-03-06T07:04:52;3.83;;;3.10;;
17596;SDS011;8917;50.942;6.946;2024-03-06T07:07:20;5.07;;;3.33;;
17596;SDS011;8917;50.942;6.946;2024-03-06T07:09:47;5.83;;;3.67;;
17596;SDS011;8917;50.942;6.946;2024-03-06T07:12:15;6.67;;;4.30;;
17596;SDS011;8917;50.942;6.946;2024-03-06T07:14:43;4.37;;;3.30;;
17596;SDS011;8917;50.942;6.946;2024-03-06T07:17:10;5.07;;;3.33;;
17596;SDS011;8917;50.942;6.946;2024-03-06T07:19:40;5.67;;;3.90;;
17596;SDS011;8917;50.942;6.946;2024-03-06T07:22:07;4.87;;;3.53;;
17596;SDS011;8917;50.942;6.946;2024-03-06T07:24:34;5.87;;;3.80;;
17596;SDS011;8917;50.942;6.946;2024-03-06T07:27:03;5.70;;;3.27;;
17596;SDS011;8917;50.942;6.946;2024-03-06T07:29:30;6.43;;;3.27;;
17596;SDS011;8917;50.942;6.946;2024-03-06T07:31:58;4.57;;;3.60;;
17596;SDS011;8917;50.942;6.946;2024-03-06T07:34:26;4.67;;;3.67;;
17596;SDS011;8917;50.942;6.946;2024-03-06T07:36:55;4.70;;;3.20;;
17596;SDS011;8917;50.942;6.946;2024-03-06T07:39:24;6.57;;;3.73;;
17596;SDS011;8917;50.942;6.946;2024-03-06T07:41:52;5.93;;;3.90;;
17596;SDS011;8917;50.942;6.946;2024-03-06T07:44:19;27.47;;;19.20;;
17596;SDS011;8917;50.942;6.946;2024-03-06T07:46:46;16.37;;;14.47;;
17596;SDS011;8917;50.942;6.946;2024-03-06T07:49:15;9.20;;;6.10;;
17596;SDS011;8917;50.942;6.946;2024-03-06T07:51:42;6.13;;;3.83;;
17596;SDS011;8917;50.942;6.946;2024-03-06T07:54:10;5.30;;;4.00;;
17596;SDS011;8917;50.942;6.946;2024-03-06T07:56:37;7.63;;;3.60;;
17596;SDS011;8917;50.942;6.946;2024-03-06T07:59:04;8.23;;;4.83;;
17596;SDS011;8917;50.942;6.946;2024-03-06T08:01:31;7.27;;;4.00;;
17596;SDS011;8917;50.942;6.946;2024-03-06T08:03:58;9.00;;;5.40;;
17596;SDS011;8917;50.942;6.946;2024-03-06T08:06:27;7.80;;;5.27;;
17596;SDS011;8917;50.942;6.946;2024-03-06T08:08:58;10.17;;;5.20;;
17596;SDS011;8917;50.942;6.946;2024-03-06T08:11:27;7.93;;;4.93;;
17596;SDS011;8917;50.942;6.946;2024-03-06T08:13:56;5.70;;;4.03;;
17596;SDS011;8917;50.942;6.946;2024-03-06T08:16:24;11.13;;;5.67;;
17596;SDS011;8917;50.942;6.946;2024-03-06T08:18:51;7.30;;;4.87;;
17596;SDS011;8917;50.942;6.946;2024-03-06T08:21:18;14.90;;;11.67;;
17596;SDS011;8917;50.942;6.946;2024-03-06T08:23:47;6.57;;;4.90;;
17596;SDS011;8917;50.942;6.946;2024-03-06T08:26:14;10.47;;;5.77;;
17596;SDS011;8917;50.942;6.946;2024-03-06T08:28:41;10.57;;;5.80;;
17596;SDS011;8917;50.942;6.946;2024-03-06T08:31:08;7.43;;;5.50;;
17596;SDS011;8917;50.942;6.946;2024-03-06T08:33:36;7.47;;;5.90;;
17596;SDS011;8917;50.942;6.946;2024-03-06T08:36:03;13.80;;;7.57;;
17596;SDS011;8917;50.942;6.946;2024-03-06T08:38:31;10.23;;;7.97;;
17596;SDS011;8917;50.942;6.946;2024-03-06T08:40:59;11.67;;;7.13;;
17596;SDS011;8917;50.942;6.946;2024-03-06T08:43:27;9.07;;;6.10;;
17596;SDS011;8917;50.942;6.946;2024-03-06T08:46:03;8.60;;;6.43;;
17596;SDS011;8917;50.942;6.946;2024-03-06T08:48:30;10.60;;;5.93;;
17596;SDS011;8917;50.942;6.946;2024-03-06T08:50:57;8.20;;;5.40;;
17596;SDS011;8917;50.942;6.946;2024-03-06T08:53:24;7.93;;;6.50;;
17596;SDS011;8917;50.942;6.946;2024-03-06T08:55:51;20.70;;;12.37;;
17596;SDS011;8917;50.942;6.946;2024-03-06T08:58:20;9.67;;;7.43;;
17596;SDS011;8917;50.942;6.946;2024-03-06T09:00:47;9.07;;;7.03;;
17596;SDS011;8917;50.942;6.946;2024-03-06T09:03:14;11.70;;;7.17;;
17596;SDS011;8917;50.942;6.946;2024-03-06T09:05:42;8.30;;;6.90;;
17596;SDS011;8917;50.942;6.946;2024-03-06T09:08:09;9.70;;;6.90;;
17596;SDS011;8917;50.942;6.946;2024-03-06T09:10:37;9.77;;;6.40;;
17596;SDS011;8917;50.942;6.946;2024-03-06T09:13:05;14.17;;;7.83;;
17596;SDS011;8917;50.942;6.946;2024-03-06T09:15:34;10.53;;;6.43;;
17596;SDS011;8917;50.942;6.946;2024-03-06T09:18:01;9.73;;;6.80;;
17596;SDS011;8917;50.942;6.946;2024-03-06T09:20:28;11.57;;;8.20;;
17596;SDS011;8917;50.942;6.946;2024-03-06T09:22:56;9.83;;;6.60;;
17596;SDS011;8917;50.942;6.946;2024-03-06T09:25:25;10.97;;;7.27;;
17596;SDS011;8917;50.942;6.946;2024-03-06T09:27:53;13.90;;;7.33;;
17596;SDS011;8917;50.942;6.946;2024-03-06T09:30:20;9.07;;;7.43;;
17596;SDS011;8917;50.942;6.946;2024-03-06T09:32:49;9.47;;;6.47;;
17596;SDS011;8917;50.942;6.946;2024-03-06T09:35:16;8.33;;;6.43;;
17596;SDS011;8917;50.942;6.946;2024-03-06T09:37:44;8.23;;;5.80;;
17596;SDS011;8917;50.942;6.946;2024-03-06T09:40:17;8.20;;;6.20;;
17596;SDS011;8917;50.942;6.946;2024-03-06T09:42:46;10.80;;;6.77;;
17596;SDS011;8917;50.942;6.946;2024-03-06T09:45:14;8.60;;;6.50;;
17596;SDS011;8917;50.942;6.946;2024-03-06T09:47:41;8.80;;;6.07;;
17596;SDS011;8917;50.942;6.946;2024-03-06T09:50:11;8.40;;;7.40;;
17596;SDS011;8917;50.942;6.946;2024-03-06T09:52:41;8.20;;;6.70;;
17596;SDS011;8917;50.942;6.946;2024-03-06T09:55:11;9.00;;;6.73;;
17596;SDS011;8917;50.942;6.946;2024-03-06T09:57:40;10.10;;;7.43;;
17596;SDS011;8917;50.942;6.946;2024-03-06T10:00:08;8.23;;;6.37;;
17596;SDS011;8917;50.942;6.946;2024-03-06T10:02:37;7.63;;;6.60;;
17596;SDS011;8917;50.942;6.946;2024-03-06T10:05:05;10.80;;;6.93;;
17596;SDS011;8917;50.942;6.946;2024-03-06T10:07:34;11.90;;;7.03;;
17596;SDS011;8917;50.942;6.946;2024-03-06T10:10:02;9.87;;;7.07;;
17596;SDS011;8917;50.942;6.946;2024-03-06T10:12:29;9.37;;;6.80;;
17596;SDS011;8917;50.942;6.946;2024-03-06T10:14:56;10.83;;;6.63;;
17596;SDS011;8917;50.942;6.946;2024-03-06T10:17:24;10.10;;;6.33;;
17596;SDS011;8917;50.942;6.946;2024-03-06T10:19:52;12.03;;;8.13;;
17596;SDS011;8917;50.942;6.946;2024-03-06T10:22:19;10.03;;;6.43;;
17596;SDS011;8917;50.942;6.946;2024-03-06T10:24:50;9.70;;;7.23;;
17596;SDS011;8917;50.942;6.946;2024-03-06T10:27:22;11.77;;;8.17;;
17596;SDS011;8917;50.942;6.946;2024-03-06T10:30:00;10.13;;;8.00;;
17596;SDS011;8917;50.942;6.946;2024-03-06T10:32:27;11.97;;;7.93;;
17596;SDS011;8917;50.942;6.946;2024-03-06T10:34:56;10.13;;;8.17;;
17596;SDS011;8917;50.942;6.946;2024-03-06T10:37:23;10.50;;;8.33;;
17596;SDS011;8917;50.942;6.946;2024-03-06T10:39:53;11.30;;;8.33;;
17596;SDS011;8917;50.942;6.946;2024-03-06T10:42:22;9.77;;;8.30;;
17596;SDS011;8917;50.942;6.946;2024-03-06T10:44:51;11.83;;;10.17;;
17596;SDS011;8917;50.942;6.946;2024-03-06T10:47:19;13.00;;;9.30;;
17596;SDS011;8917;50.942;6.946;2024-03-06T10:49:51;13.37;;;8.50;;
17596;SDS011;8917;50.942;6.946;2024-03-06T10:52:19;13.73;;;8.40;;
17596;SDS011;8917;50.942;6.946;2024-03-06T10:54:46;11.30;;;8.47;;
17596;SDS011;8917;50.942;6.946;2024-03-06T10:57:16;13.60;;;9.10;;
17596;SDS011;8917;50.942;6.946;2024-03-06T10:59:43;13.27;;;9.10;;
17596;SDS011;8917;50.942;6.946;2024-03-06T11:02:11;12.20;;;9.10;;
17596;SDS011;8917;50.942;6.946;2024-03-06T11:04:39;11.93;;;9.37;;
17596;SDS011;8917;50.942;6.946;2024-03-06T11:07:07;11.73;;;9.50;;
17596;SDS011;8917;50.942;6.946;2024-03-06T11:09:35;12.67;;;10.10;;
17596;SDS011;8917;50.942;6.946;2024-03-06T11:12:03;13.40;;;9.80;;
17596;SDS011;8917;50.942;6.946;2024-03-06T11:14:35;13.43;;;10.00;;
17596;SDS011;8917;50.942;6.946;2024-03-06T11:17:03;15.60;;;10.50;;
17596;SDS011;8917;50.942;6.946;2024-03-06T11:19:32;13.67;;;11.33;;
17596;SDS011;8917;50.942;6.946;2024-03-06T11:21:59;14.43;;;10.80;;
17596;SDS011;8917;50.942;6.946;2024-03-06T11:24:31;17.93;;;12.10;;
17596;SDS011;8917;50.942;6.946;2024-03-06T11:26:59;17.47;;;12.50;;
17596;SDS011;8917;50.942;6.946;2024-03-06T11:29:28;21.43;;;13.80;;
17596;SDS011;8917;50.942;6.946;2024-03-06T11:32:02;16.03;;;12.20;;
17596;SDS011;8917;50.942;6.946;2024-03-06T11:34:31;15.43;;;12.13;;
17596;SDS011;8917;50.942;6.946;2024-03-06T11:36:58;15.90;;;12.53;;
17596;SDS011;8917;50.942;6.946;2024-03-06T11:39:29;17.37;;;12.20;;
17596;SDS011;8917;50.942;6.946;2024-03-06T11:41:56;17.87;;;12.00;;
17596;SDS011;8917;50.942;6.946;2024-03-06T11:44:23;17.60;;;11.87;;
17596;SDS011;8917;50.942;6.946;2024-03-06T11:46:56;13.47;;;10.87;;
17596;SDS011;8917;50.942;6.946;2024-03-06T11:49:25;15.83;;;11.93;;
17596;SDS011;8917;50.942;6.946;2024-03-06T11:51:54;16.37;;;11.87;;
17596;SDS011;8917;50.942;6.946;2024-03-06T11:54:22;15.47;;;11.53;;
17596;SDS011;8917;50.942;6.946;2024-03-06T11:56:51;15.43;;;10.70;;
17596;SDS011;8917;50.942;6.946;2024-03-06T11:59:20;15.33;;;11.97;;
17596;SDS011;8917;50.942;6.946;2024-03-06T12:01:48;16.30;;;11.57;;
17596;SDS011;8917;50.942;6.946;2024-03-06T12:04:15;15.67;;;10.70;;
17596;SDS011;8917;50.942;6.946;2024-03-06T12:06:44;14.93;;;11.40;;
17596;SDS011;8917;50.942;6.946;2024-03-06T12:09:11;13.83;;;10.67;;
17596;SDS011;8917;50.942;6.946;2024-03-06T12:11:38;12.97;;;9.97;;
17596;SDS011;8917;50.942;6.946;2024-03-06T12:14:06;15.37;;;10.80;;
17596;SDS011;8917;50.942;6.946;2024-03-06T12:16:34;13.37;;;10.70;;
17596;SDS011;8917;50.942;6.946;2024-03-06T12:19:02;25.73;;;11.30;;
17596;SDS011;8917;50.942;6.946;2024-03-06T12:21:30;16.50;;;12.60;;
17596;SDS011;8917;50.942;6.946;2024-03-06T12:24:05;14.40;;;11.60;;
17596;SDS011;8917;50.942;6.946;2024-03-06T12:26:33;14.90;;;11.27;;
17596;SDS011;8917;50.942;6.946;2024-03-06T12:29:04;17.77;;;12.20;;
17596;SDS011;8917;50.942;6.946;2024-03-06T12:31:32;14.47;;;10.47;;
17596;SDS011;8917;50.942;6.946;2024-03-06T12:33:59;20.53;;;11.50;;
17596;SDS011;8917;50.942;6.946;2024-03-06T12:36:28;16.17;;;12.33;;
17596;SDS011;8917;50.942;6.946;2024-03-06T12:38:56;15.03;;;11.93;;
17596;SDS011;8917;50.942;6.946;2024-03-06T12:41:25;15.27;;;11.70;;
17596;SDS011;8917;50.942;6.946;2024-03-06T12:43:53;13.50;;;10.33;;
17596;SDS011;8917;50.942;6.946;2024-03-06T12:46:21;13.17;;;10.60;;
17596;SDS011;8917;50.942;6.946;2024-03-06T12:48:48;11.07;;;9.77;;
17596;SDS011;8917;50.942;6.946;2024-03-06T12:51:16;11.83;;;9.73;;
17596;SDS011;8917;50.942;6.946;2024-03-06T12:53:43;13.10;;;9.43;;
17596;SDS011;8917;50.942;6.946;2024-03-06T12:56:11;14.07;;;9.47;;
17596;SDS011;8917;50.942;6.946;2024-03-06T12:58:39;12.57;;;9.87;;
17596;SDS011;8917;50.942;6.946;2024-03-06T13:01:06;12.67;;;9.90;;
17596;SDS011;8917;50.942;6.946;2024-03-06T13:03:34;13.07;;;9.83;;
17596;SDS011;8917;50.942;6.946;2024-03-06T13:06:01;14.20;;;10.63;;
17596;SDS011;8917;50.942;6.946;2024-03-06T13:08:28;12.27;;;9.00;;
17596;SDS011;8917;50.942;6.946;2024-03-06T13:10:55;12.27;;;9.50;;
17596;SDS011;8917;50.942;6.946;2024-03-06T13:13:22;12.60;;;8.80;;
17596;SDS011;8917;50.942;6.946;2024-03-06T13:15:51;10.93;;;8.97;;
17596;SDS011;8917;50.942;6.946;2024-03-06T13:18:18;12.53;;;8.30;;
17596;SDS011;8917;50.942;6.946;2024-03-06T13:20:46;11.57;;;9.13;;
17596;SDS011;8917;50.942;6.946;2024-03-06T13:23:14;12.10;;;9.30;;
17596;SDS011;8917;50.942;6.946;2024-03-06T13:25:41;17.73;;;13.67;;
17596;SDS011;8917;50.942;6.946;2024-03-06T13:28:08;13.20;;;10.00;;
17596;SDS011;8917;50.942;6.946;2024-03-06T13:30:35;11.93;;;9.13;;
17596;SDS011;8917;50.942;6.946;2024-03-06T13:33:05;10.60;;;8.13;;
17596;SDS011;8917;50.942;6.946;2024-03-06T13:35:32;13.70;;;8.30;;
17596;SDS011;8917;50.942;6.946;2024-03-06T13:37:59;12.40;;;6.40;;
17596;SDS011;8917;50.942;6.946;2024-03-06T13:40:28;10.87;;;6.47;;
17596;SDS011;8917;50.942;6.946;2024-03-06T13:42:55;11.43;;;7.00;;
17596;SDS011;8917;50.942;6.946;2024-03-06T13:45:22;31.13;;;9.37;;
17596;SDS011;8917;50.942;6.946;2024-03-06T13:47:50;14.57;;;7.87;;
17596;SDS011;8917;50.942;6.946;2024-03-06T13:50:18;13.93;;;7.30;;
17596;SDS011;8917;50.942;6.946;2024-03-06T13:52:48;12.20;;;6.63;;
17596;SDS011;8917;50.942;6.946;2024-03-06T13:55:16;17.00;;;9.27;;
17596;SDS011;8917;50.942;6.946;2024-03-06T13:57:44;30.20;;;11.20;;
17596;SDS011;8917;50.942;6.946;2024-03-06T14:00:12;17.10;;;9.03;;
17596;SDS011;8917;50.942;6.946;2024-03-06T14:02:42;11.07;;;8.50;;
17596;SDS011;8917;50.942;6.946;2024-03-06T14:05:10;11.10;;;8.90;;
17596;SDS011;8917;50.942;6.946;2024-03-06T14:07:40;11.93;;;8.50;;
17596;SDS011;8917;50.942;6.946;2024-03-06T14:10:08;8.33;;;6.70;;
17596;SDS011;8917;50.942;6.946;2024-03-06T14:12:36;13.67;;;7.70;;
17596;SDS011;8917;50.942;6.946;2024-03-06T14:15:04;7.93;;;5.23;;
17596;SDS011;8917;50.942;6.946;2024-03-06T14:17:34;8.43;;;7.10;;
17596;SDS011;8917;50.942;6.946;2024-03-06T14:20:01;8.07;;;6.47;;
17596;SDS011;8917;50.942;6.946;2024-03-06T14:22:28;9.67;;;6.67;;
17596;SDS011;8917;50.942;6.946;2024-03-06T14:24:57;7.00;;;6.07;;
17596;SDS011;8917;50.942;6.946;2024-03-06T14:27:24;7.93;;;6.10;;
17596;SDS011;8917;50.942;6.946;2024-03-06T14:29:51;7.63;;;4.77;;
17596;SDS011;8917;50.942;6.946;2024-03-06T14:32:19;9.40;;;4.90;;
17596;SDS011;8917;50.942;6.946;2024-03-06T14:34:46;5.87;;;4.53;;
17596;SDS011;8917;50.942;6.946;2024-03-06T14:37:14;6.03;;;5.03;;
17596;SDS011;8917;50.942;6.946;2024-03-06T14:39:41;8.83;;;6.13;;
17596;SDS011;8917;50.942;6.946;2024-03-06T14:42:11;6.77;;;5.30;;
17596;SDS011;8917;50.942;6.946;2024-03-06T14:44:39;9.20;;;5.17;;
17596;SDS011;8917;50.942;6.946;2024-03-06T14:47:09;8.53;;;5.70;;
17596;SDS011;8917;50.942;6.946;2024-03-06T14:49:36;8.73;;;6.17;;
17596;SDS011;8917;50.942;6.946;2024-03-06T14:52:04;6.63;;;5.23;;